sensor_id;sensor_type;location;lat;lon;timestamp;P1;P2;P0
79141;PMS5003;68550;-26.480;29.234;2023-06-14T00:01:40;1;1;
79141;PMS5003;68550;-26.480;29.234;2023-06-14T00:04:05;1;1;
79141;PMS5003;68550;-26.480;29.234;2023-06-14T00:06:31;1;1;
79141;PMS5003;68550;-26.480;29.234;2023-06-14T00:08:56;0;0;
79141;PMS5003;68550;-26.480;29.234;2023-06-14T00:11:22;1;1;
79141;PMS5003;68550;-26.480;29.234;2023-06-14T00:13:47;0;0;
79141;PMS5003;68550;-26.480;29.234;2023-06-14T00:16:13;2;2;
79141;PMS5003;68550;-26.480;29.234;2023-06-14T00:18:39;1;1;
79141;PMS5003;68550;-26.480;29.234;2023-06-14T00:21:04;1;1;
79141;PMS5003;68550;-26.480;29.234;2023-06-14T00:23:30;1;1;
79141;PMS5003;68550;-26.480;29.234;2023-06-14T00:25:55;1;1;
79141;PMS5003;68550;-26.480;29.234;2023-06-14T00:28:20;1;1;
79141;PMS5003;68550;-26.480;29.234;2023-06-14T00:30:46;0;0;
79141;PMS5003;68550;-26.480;29.234;2023-06-14T00:33:11;0;0;
79141;PMS5003;68550;-26.480;29.234;2023-06-14T00:35:41;1;1;
79141;PMS5003;68550;-26.480;29.234;2023-06-14T00:38:02;1;1;
79141;PMS5003;68550;-26.480;29.234;2023-06-14T00:40:28;0;0;
79141;PMS5003;68550;-26.480;29.234;2023-06-14T00:42:54;2;2;
79141;PMS5003;68550;-26.480;29.234;2023-06-14T00:45:19;1;1;
79141;PMS5003;68550;-26.480;29.234;2023-06-14T00:47:45;1;0;
79141;PMS5003;68550;-26.480;29.234;2023-06-14T00:50:10;1;1;
79141;PMS5003;68550;-26.480;29.234;2023-06-14T00:52:36;0;0;
79141;PMS5003;68550;-26.480;29.234;2023-06-14T00:55:01;1;1;
79141;PMS5003;68550;-26.480;29.234;2023-06-14T00:57:27;1;1;
79141;PMS5003;68550;-26.480;29.234;2023-06-14T00:59:52;2;2;
79141;PMS5003;68550;-26.480;29.234;2023-06-14T01:02:18;1;1;
79141;PMS5003;68550;-26.480;29.234;2023-06-14T01:04:46;1;1;
79141;PMS5003;68550;-26.480;29.234;2023-06-14T01:07:10;0;0;
79141;PMS5003;68550;-26.480;29.234;2023-06-14T01:09:37;1;1;
79141;PMS5003;68550;-26.480;29.234;2023-06-14T01:14:26;1;1;
79141;PMS5003;68550;-26.480;29.234;2023-06-14T01:16:51;2;2;
79141;PMS5003;68550;-26.480;29.234;2023-06-14T01:19:17;0;0;
79141;PMS5003;68550;-26.480;29.234;2023-06-14T01:21:42;0;0;
79141;PMS5003;68550;-26.480;29.234;2023-06-14T01:24:08;1;1;
79141;PMS5003;68550;-26.480;29.234;2023-06-14T01:26:33;2;2;
79141;PMS5003;68550;-26.480;29.234;2023-06-14T01:28:59;1;1;
79141;PMS5003;68550;-26.480;29.234;2023-06-14T01:31:24;1;1;
79141;PMS5003;68550;-26.480;29.234;2023-06-14T01:33:50;1;1;
79141;PMS5003;68550;-26.480;29.234;2023-06-14T01:36:15;1;1;
79141;PMS5003;68550;-26.480;29.234;2023-06-14T01:38:41;1;1;
79141;PMS5003;68550;-26.480;29.234;2023-06-14T01:41:07;1;1;
79141;PMS5003;68550;-26.480;29.234;2023-06-14T01:43:32;1;1;
79141;PMS5003;68550;-26.480;29.234;2023-06-14T01:45:58;1;1;
79141;PMS5003;68550;-26.480;29.234;2023-06-14T01:48:23;1;1;
79141;PMS5003;68550;-26.480;29.234;2023-06-14T01:50:49;0;0;
79141;PMS5003;68550;-26.480;29.234;2023-06-14T01:53:18;1;1;
79141;PMS5003;68550;-26.480;29.234;2023-06-14T01:55:40;1;1;
79141;PMS5003;68550;-26.480;29.234;2023-06-14T01:58:05;1;1;
79141;PMS5003;68550;-26.480;29.234;2023-06-14T02:00:31;1;1;
79141;PMS5003;68550;-26.480;29.234;2023-06-14T02:02:56;1;1;
79141;PMS5003;68550;-26.480;29.234;2023-06-14T02:05:22;0;0;
79141;PMS5003;68550;-26.480;29.234;2023-06-14T02:07:47;2;1;
79141;PMS5003;68550;-26.480;29.234;2023-06-14T02:10:13;2;2;
79141;PMS5003;68550;-26.480;29.234;2023-06-14T02:12:38;0;0;
79141;PMS5003;68550;-26.480;29.234;2023-06-14T02:15:04;1;1;
79141;PMS5003;68550;-26.480;29.234;2023-06-14T02:17:30;0;0;
79141;PMS5003;68550;-26.480;29.234;2023-06-14T02:19:55;2;2;
79141;PMS5003;68550;-26.480;29.234;2023-06-14T02:22:21;1;1;
79141;PMS5003;68550;-26.480;29.234;2023-06-14T02:24:46;1;1;
79141;PMS5003;68550;-26.480;29.234;2023-06-14T02:27:12;2;1;
79141;PMS5003;68550;-26.480;29.234;2023-06-14T02:29:39;0;0;
79141;PMS5003;68550;-26.480;29.234;2023-06-14T02:32:03;2;2;
79141;PMS5003;68550;-26.480;29.234;2023-06-14T02:34:29;0;0;
79141;PMS5003;68550;-26.480;29.234;2023-06-14T02:36:54;2;2;
79141;PMS5003;68550;-26.480;29.234;2023-06-14T02:39:20;1;1;
79141;PMS5003;68550;-26.480;29.234;2023-06-14T02:41:46;1;1;
79141;PMS5003;68550;-26.480;29.234;2023-06-14T02:44:12;0;0;
79141;PMS5003;68550;-26.480;29.234;2023-06-14T02:46:37;0;0;
79141;PMS5003;68550;-26.480;29.234;2023-06-14T02:49:05;1;1;
79141;PMS5003;68550;-26.480;29.234;2023-06-14T02:51:28;3;2;
79141;PMS5003;68550;-26.480;29.234;2023-06-14T02:53:53;2;2;
79141;PMS5003;68550;-26.480;29.234;2023-06-14T02:56:19;3;3;
79141;PMS5003;68550;-26.480;29.234;2023-06-14T02:58:45;3;3;
79141;PMS5003;68550;-26.480;29.234;2023-06-14T03:01:10;3;2;
79141;PMS5003;68550;-26.480;29.234;2023-06-14T03:03:36;1;1;
79141;PMS5003;68550;-26.480;29.234;2023-06-14T03:06:01;1;1;
79141;PMS5003;68550;-26.480;29.234;2023-06-14T03:08:27;1;1;
79141;PMS5003;68550;-26.480;29.234;2023-06-14T03:10:54;1;1;
79141;PMS5003;68550;-26.480;29.234;2023-06-14T03:13:18;2;1;
79141;PMS5003;68550;-26.480;29.234;2023-06-14T03:15:43;1;1;
79141;PMS5003;68550;-26.480;29.234;2023-06-14T03:18:09;1;1;
79141;PMS5003;68550;-26.480;29.234;2023-06-14T03:20:34;3;2;
79141;PMS5003;68550;-26.480;29.234;2023-06-14T03:23:01;2;2;
79141;PMS5003;68550;-26.480;29.234;2023-06-14T03:25:26;1;1;
79141;PMS5003;68550;-26.480;29.234;2023-06-14T03:27:51;1;1;
79141;PMS5003;68550;-26.480;29.234;2023-06-14T03:30:17;2;2;
79141;PMS5003;68550;-26.480;29.234;2023-06-14T03:32:43;4;4;
79141;PMS5003;68550;-26.480;29.234;2023-06-14T03:35:08;1;1;
79141;PMS5003;68550;-26.480;29.234;2023-06-14T03:37:34;2;2;
79141;PMS5003;68550;-26.480;29.234;2023-06-14T03:39:59;2;1;
79141;PMS5003;68550;-26.480;29.234;2023-06-14T03:42:25;1;1;
79141;PMS5003;68550;-26.480;29.234;2023-06-14T03:44:50;2;2;
79141;PMS5003;68550;-26.480;29.234;2023-06-14T03:47:16;1;1;
79141;PMS5003;68550;-26.480;29.234;2023-06-14T03:49:41;1;1;
79141;PMS5003;68550;-26.480;29.234;2023-06-14T03:52:09;2;2;
79141;PMS5003;68550;-26.480;29.234;2023-06-14T03:54:33;1;1;
79141;PMS5003;68550;-26.480;29.234;2023-06-14T03:56:58;1;1;
79141;PMS5003;68550;-26.480;29.234;2023-06-14T03:59:24;2;2;
79141;PMS5003;68550;-26.480;29.234;2023-06-14T04:01:49;3;2;
79141;PMS5003;68550;-26.480;29.234;2023-06-14T04:04:17;2;1;
79141;PMS5003;68550;-26.480;29.234;2023-06-14T04:06:40;1;1;
79141;PMS5003;68550;-26.480;29.234;2023-06-14T04:09:06;2;2;
79141;PMS5003;68550;-26.480;29.234;2023-06-14T04:11:32;2;2;
79141;PMS5003;68550;-26.480;29.234;2023-06-14T04:13:57;2;2;
79141;PMS5003;68550;-26.480;29.234;2023-06-14T04:16:23;4;4;
79141;PMS5003;68550;-26.480;29.234;2023-06-14T04:18:48;2;2;
79141;PMS5003;68550;-26.480;29.234;2023-06-14T04:21:13;3;3;
79141;PMS5003;68550;-26.480;29.234;2023-06-14T04:23:39;3;3;
79141;PMS5003;68550;-26.480;29.234;2023-06-14T04:26:05;7;6;
79141;PMS5003;68550;-26.480;29.234;2023-06-14T04:28:30;3;3;
79141;PMS5003;68550;-26.480;29.234;2023-06-14T04:30:56;4;4;
79141;PMS5003;68550;-26.480;29.234;2023-06-14T04:33:21;4;4;
79141;PMS5003;68550;-26.480;29.234;2023-06-14T04:35:47;4;3;
79141;PMS5003;68550;-26.480;29.234;2023-06-14T04:38:13;4;4;
79141;PMS5003;68550;-26.480;29.234;2023-06-14T04:40:38;3;3;
79141;PMS5003;68550;-26.480;29.234;2023-06-14T04:43:06;3;3;
79141;PMS5003;68550;-26.480;29.234;2023-06-14T04:45:29;6;6;
79141;PMS5003;68550;-26.480;29.234;2023-06-14T04:47:55;4;4;
79141;PMS5003;68550;-26.480;29.234;2023-06-14T04:50:20;6;6;
79141;PMS5003;68550;-26.480;29.234;2023-06-14T04:52:46;6;5;
79141;PMS5003;68550;-26.480;29.234;2023-06-14T04:55:12;5;4;
79141;PMS5003;68550;-26.480;29.234;2023-06-14T04:57:37;6;6;
79141;PMS5003;68550;-26.480;29.234;2023-06-14T05:00:03;7;6;
79141;PMS5003;68550;-26.480;29.234;2023-06-14T05:02:28;4;4;
79141;PMS5003;68550;-26.480;29.234;2023-06-14T05:04:56;5;4;
79141;PMS5003;68550;-26.480;29.234;2023-06-14T05:07:19;5;5;
79141;PMS5003;68550;-26.480;29.234;2023-06-14T05:09:45;6;6;
79141;PMS5003;68550;-26.480;29.234;2023-06-14T05:12:10;7;7;
79141;PMS5003;68550;-26.480;29.234;2023-06-14T05:14:36;6;6;
79141;PMS5003;68550;-26.480;29.234;2023-06-14T05:17:01;6;5;
79141;PMS5003;68550;-26.480;29.234;2023-06-14T05:19:27;7;7;
79141;PMS5003;68550;-26.480;29.234;2023-06-14T05:21:52;10;8;
79141;PMS5003;68550;-26.480;29.234;2023-06-14T05:24:18;7;7;
79141;PMS5003;68550;-26.480;29.234;2023-06-14T05:26:43;9;6;
79141;PMS5003;68550;-26.480;29.234;2023-06-14T05:29:09;10;9;
79141;PMS5003;68550;-26.480;29.234;2023-06-14T05:31:35;5;5;
79141;PMS5003;68550;-26.480;29.234;2023-06-14T05:34:00;5;3;
79141;PMS5003;68550;-26.480;29.234;2023-06-14T05:36:25;8;8;
79141;PMS5003;68550;-26.480;29.234;2023-06-14T05:38:51;7;7;
79141;PMS5003;68550;-26.480;29.234;2023-06-14T05:41:16;6;6;
79141;PMS5003;68550;-26.480;29.234;2023-06-14T05:43:42;6;6;
79141;PMS5003;68550;-26.480;29.234;2023-06-14T05:46:07;9;7;
79141;PMS5003;68550;-26.480;29.234;2023-06-14T05:48:33;7;4;
79141;PMS5003;68550;-26.480;29.234;2023-06-14T05:50:59;6;6;
79141;PMS5003;68550;-26.480;29.234;2023-06-14T05:53:24;5;5;
79141;PMS5003;68550;-26.480;29.234;2023-06-14T05:55:50;5;5;
79141;PMS5003;68550;-26.480;29.234;2023-06-14T05:58:16;5;5;
79141;PMS5003;68550;-26.480;29.234;2023-06-14T06:00:41;6;6;
79141;PMS5003;68550;-26.480;29.234;2023-06-14T06:03:06;5;5;
79141;PMS5003;68550;-26.480;29.234;2023-06-14T06:05:32;5;5;
79141;PMS5003;68550;-26.480;29.234;2023-06-14T06:07:58;7;6;
79141;PMS5003;68550;-26.480;29.234;2023-06-14T06:10:23;5;5;
79141;PMS5003;68550;-26.480;29.234;2023-06-14T06:12:49;4;3;
79141;PMS5003;68550;-26.480;29.234;2023-06-14T06:15:14;7;6;
79141;PMS5003;68550;-26.480;29.234;2023-06-14T06:17:40;6;5;
79141;PMS5003;68550;-26.480;29.234;2023-06-14T06:20:06;5;4;
79141;PMS5003;68550;-26.480;29.234;2023-06-14T06:22:31;6;5;
79141;PMS5003;68550;-26.480;29.234;2023-06-14T06:24:58;6;5;
79141;PMS5003;68550;-26.480;29.234;2023-06-14T06:27:22;5;5;
79141;PMS5003;68550;-26.480;29.234;2023-06-14T06:29:48;2;2;
79141;PMS5003;68550;-26.480;29.234;2023-06-14T06:32:13;5;5;
79141;PMS5003;68550;-26.480;29.234;2023-06-14T06:34:39;4;4;
79141;PMS5003;68550;-26.480;29.234;2023-06-14T06:37:05;5;5;
79141;PMS5003;68550;-26.480;29.234;2023-06-14T06:39:30;6;5;
79141;PMS5003;68550;-26.480;29.234;2023-06-14T06:41:55;7;6;
79141;PMS5003;68550;-26.480;29.234;2023-06-14T06:44:21;3;3;
79141;PMS5003;68550;-26.480;29.234;2023-06-14T06:46:46;4;3;
79141;PMS5003;68550;-26.480;29.234;2023-06-14T06:49:13;4;3;
79141;PMS5003;68550;-26.480;29.234;2023-06-14T06:51:40;3;3;
79141;PMS5003;68550;-26.480;29.234;2023-06-14T06:54:03;5;5;
79141;PMS5003;68550;-26.480;29.234;2023-06-14T06:56:29;3;3;
79141;PMS5003;68550;-26.480;29.234;2023-06-14T06:58:54;4;4;
79141;PMS5003;68550;-26.480;29.234;2023-06-14T07:01:20;4;4;
79141;PMS5003;68550;-26.480;29.234;2023-06-14T07:03:48;3;3;
79141;PMS5003;68550;-26.480;29.234;2023-06-14T07:06:11;4;3;
79141;PMS5003;68550;-26.480;29.234;2023-06-14T07:08:36;4;4;
79141;PMS5003;68550;-26.480;29.234;2023-06-14T07:11:02;3;3;
79141;PMS5003;68550;-26.480;29.234;2023-06-14T07:13:28;5;5;
79141;PMS5003;68550;-26.480;29.234;2023-06-14T07:15:56;3;3;
79141;PMS5003;68550;-26.480;29.234;2023-06-14T07:18:19;3;3;
79141;PMS5003;68550;-26.480;29.234;2023-06-14T07:20:44;4;4;
79141;PMS5003;68550;-26.480;29.234;2023-06-14T07:23:10;3;3;
79141;PMS5003;68550;-26.480;29.234;2023-06-14T07:25:35;4;4;
79141;PMS5003;68550;-26.480;29.234;2023-06-14T07:28:04;4;3;
79141;PMS5003;68550;-26.480;29.234;2023-06-14T07:30:27;6;4;
79141;PMS5003;68550;-26.480;29.234;2023-06-14T07:32:52;5;4;
79141;PMS5003;68550;-26.480;29.234;2023-06-14T07:35:18;3;2;
79141;PMS5003;68550;-26.480;29.234;2023-06-14T07:37:45;3;3;
79141;PMS5003;68550;-26.480;29.234;2023-06-14T07:40:11;4;4;
79141;PMS5003;68550;-26.480;29.234;2023-06-14T07:42:34;4;4;
79141;PMS5003;68550;-26.480;29.234;2023-06-14T07:45:00;3;3;
79141;PMS5003;68550;-26.480;29.234;2023-06-14T07:47:25;3;2;
79141;PMS5003;68550;-26.480;29.234;2023-06-14T07:49:51;4;4;
79141;PMS5003;68550;-26.480;29.234;2023-06-14T07:52:17;3;2;
79141;PMS5003;68550;-26.480;29.234;2023-06-14T07:54:42;4;4;
79141;PMS5003;68550;-26.480;29.234;2023-06-14T07:57:08;3;3;
79141;PMS5003;68550;-26.480;29.234;2023-06-14T07:59:33;2;2;
79141;PMS5003;68550;-26.480;29.234;2023-06-14T08:01:59;3;3;
79141;PMS5003;68550;-26.480;29.234;2023-06-14T08:04:24;2;2;
79141;PMS5003;68550;-26.480;29.234;2023-06-14T08:06:50;3;3;
79141;PMS5003;68550;-26.480;29.234;2023-06-14T08:09:15;2;2;
79141;PMS5003;68550;-26.480;29.234;2023-06-14T08:11:41;3;3;
79141;PMS5003;68550;-26.480;29.234;2023-06-14T08:14:06;3;3;
79141;PMS5003;68550;-26.480;29.234;2023-06-14T08:16:32;4;4;
79141;PMS5003;68550;-26.480;29.234;2023-06-14T08:18:58;3;3;
79141;PMS5003;68550;-26.480;29.234;2023-06-14T08:21:23;4;4;
79141;PMS5003;68550;-26.480;29.234;2023-06-14T08:23:49;3;3;
79141;PMS5003;68550;-26.480;29.234;2023-06-14T08:26:14;3;3;
79141;PMS5003;68550;-26.480;29.234;2023-06-14T08:28:40;2;2;
79141;PMS5003;68550;-26.480;29.234;2023-06-14T08:31:06;3;3;
79141;PMS5003;68550;-26.480;29.234;2023-06-14T08:33:31;4;3;
79141;PMS5003;68550;-26.480;29.234;2023-06-14T08:35:56;4;4;
79141;PMS5003;68550;-26.480;29.234;2023-06-14T08:38:22;3;3;
79141;PMS5003;68550;-26.480;29.234;2023-06-14T08:40:48;2;2;
79141;PMS5003;68550;-26.480;29.234;2023-06-14T08:43:13;3;3;
79141;PMS5003;68550;-26.480;29.234;2023-06-14T08:45:40;3;3;
79141;PMS5003;68550;-26.480;29.234;2023-06-14T08:48:04;4;3;
79141;PMS5003;68550;-26.480;29.234;2023-06-14T08:50:30;3;3;
79141;PMS5003;68550;-26.480;29.234;2023-06-14T08:52:57;2;2;
79141;PMS5003;68550;-26.480;29.234;2023-06-14T08:55:23;2;2;
79141;PMS5003;68550;-26.480;29.234;2023-06-14T08:57:46;2;2;
79141;PMS5003;68550;-26.480;29.234;2023-06-14T09:00:12;2;2;
79141;PMS5003;68550;-26.480;29.234;2023-06-14T09:02:37;4;2;
79141;PMS5003;68550;-26.480;29.234;2023-06-14T09:05:02;1;1;
79141;PMS5003;68550;-26.480;29.234;2023-06-14T09:07:29;3;2;
79141;PMS5003;68550;-26.480;29.234;2023-06-14T09:12:19;3;2;
79141;PMS5003;68550;-26.480;29.234;2023-06-14T09:14:46;1;1;
79141;PMS5003;68550;-26.480;29.234;2023-06-14T09:17:12;2;2;
79141;PMS5003;68550;-26.480;29.234;2023-06-14T09:19:36;2;2;
79141;PMS5003;68550;-26.480;29.234;2023-06-14T09:22:01;2;2;
79141;PMS5003;68550;-26.480;29.234;2023-06-14T09:24:27;2;2;
79141;PMS5003;68550;-26.480;29.234;2023-06-14T09:26:52;2;2;
79141;PMS5003;68550;-26.480;29.234;2023-06-14T09:29:18;3;2;
79141;PMS5003;68550;-26.480;29.234;2023-06-14T09:31:45;3;2;
79141;PMS5003;68550;-26.480;29.234;2023-06-14T09:34:12;3;3;
79141;PMS5003;68550;-26.480;29.234;2023-06-14T09:36:34;2;2;
79141;PMS5003;68550;-26.480;29.234;2023-06-14T09:39:00;3;3;
79141;PMS5003;68550;-26.480;29.234;2023-06-14T09:41:31;2;2;
79141;PMS5003;68550;-26.480;29.234;2023-06-14T09:43:51;3;2;
79141;PMS5003;68550;-26.480;29.234;2023-06-14T09:46:18;3;2;
79141;PMS5003;68550;-26.480;29.234;2023-06-14T09:48:42;2;2;
79141;PMS5003;68550;-26.480;29.234;2023-06-14T09:51:08;3;3;
79141;PMS5003;68550;-26.480;29.234;2023-06-14T09:53:33;1;1;
79141;PMS5003;68550;-26.480;29.234;2023-06-14T09:55:59;3;3;
79141;PMS5003;68550;-26.480;29.234;2023-06-14T09:58:26;2;2;
79141;PMS5003;68550;-26.480;29.234;2023-06-14T10:00:50;3;3;
79141;PMS5003;68550;-26.480;29.234;2023-06-14T10:03:18;4;4;
79141;PMS5003;68550;-26.480;29.234;2023-06-14T10:05:42;4;3;
79141;PMS5003;68550;-26.480;29.234;2023-06-14T10:08:08;2;2;
79141;PMS5003;68550;-26.480;29.234;2023-06-14T10:10:32;4;3;
79141;PMS5003;68550;-26.480;29.234;2023-06-14T10:12:57;3;3;
79141;PMS5003;68550;-26.480;29.234;2023-06-14T10:15:23;4;3;
79141;PMS5003;68550;-26.480;29.234;2023-06-14T10:17:50;3;3;
79141;PMS5003;68550;-26.480;29.234;2023-06-14T10:20:17;3;2;
79141;PMS5003;68550;-26.480;29.234;2023-06-14T10:22:41;3;3;
79141;PMS5003;68550;-26.480;29.234;2023-06-14T10:25:07;3;2;
79141;PMS5003;68550;-26.480;29.234;2023-06-14T10:27:31;3;3;
79141;PMS5003;68550;-26.480;29.234;2023-06-14T10:30:02;2;2;
79141;PMS5003;68550;-26.480;29.234;2023-06-14T10:32:22;2;2;
79141;PMS5003;68550;-26.480;29.234;2023-06-14T10:37:13;3;3;
79141;PMS5003;68550;-26.480;29.234;2023-06-14T10:39:39;3;3;
79141;PMS5003;68550;-26.480;29.234;2023-06-14T10:42:04;2;2;
79141;PMS5003;68550;-26.480;29.234;2023-06-14T10:46:58;4;4;
79141;PMS5003;68550;-26.480;29.234;2023-06-14T10:51:50;2;2;
79141;PMS5003;68550;-26.480;29.234;2023-06-14T10:54:13;3;3;
79141;PMS5003;68550;-26.480;29.234;2023-06-14T10:56:37;2;2;
79141;PMS5003;68550;-26.480;29.234;2023-06-14T10:59:02;3;3;
79141;PMS5003;68550;-26.480;29.234;2023-06-14T11:01:32;4;3;
79141;PMS5003;68550;-26.480;29.234;2023-06-14T11:03:55;2;2;
79141;PMS5003;68550;-26.480;29.234;2023-06-14T11:06:21;2;2;
79141;PMS5003;68550;-26.480;29.234;2023-06-14T11:11:10;4;4;
79141;PMS5003;68550;-26.480;29.234;2023-06-14T11:13:37;6;5;
79141;PMS5003;68550;-26.480;29.234;2023-06-14T11:16:02;4;3;
79141;PMS5003;68550;-26.480;29.234;2023-06-14T11:18:27;5;5;
79141;PMS5003;68550;-26.480;29.234;2023-06-14T11:20:52;3;3;
79141;PMS5003;68550;-26.480;29.234;2023-06-14T11:23:18;4;4;
79141;PMS5003;68550;-26.480;29.234;2023-06-14T11:25:43;4;4;
79141;PMS5003;68550;-26.480;29.234;2023-06-14T11:28:11;7;5;
79141;PMS5003;68550;-26.480;29.234;2023-06-14T11:30:34;4;4;
79141;PMS5003;68550;-26.480;29.234;2023-06-14T11:33:00;4;4;
79141;PMS5003;68550;-26.480;29.234;2023-06-14T11:35:26;5;4;
79141;PMS5003;68550;-26.480;29.234;2023-06-14T11:37:52;6;5;
79141;PMS5003;68550;-26.480;29.234;2023-06-14T11:40:18;5;4;
79141;PMS5003;68550;-26.480;29.234;2023-06-14T11:42:42;5;5;
79141;PMS5003;68550;-26.480;29.234;2023-06-14T11:45:08;3;3;
79141;PMS5003;68550;-26.480;29.234;2023-06-14T11:47:34;3;3;
79141;PMS5003;68550;-26.480;29.234;2023-06-14T11:49:59;5;4;
79141;PMS5003;68550;-26.480;29.234;2023-06-14T11:52:24;4;4;
79141;PMS5003;68550;-26.480;29.234;2023-06-14T11:54:50;5;5;
79141;PMS5003;68550;-26.480;29.234;2023-06-14T11:57:16;4;4;
79141;PMS5003;68550;-26.480;29.234;2023-06-14T11:59:41;5;4;
79141;PMS5003;68550;-26.480;29.234;2023-06-14T12:02:07;4;4;
79141;PMS5003;68550;-26.480;29.234;2023-06-14T12:04:32;3;2;
79141;PMS5003;68550;-26.480;29.234;2023-06-14T12:07:02;5;5;
79141;PMS5003;68550;-26.480;29.234;2023-06-14T12:09:23;5;5;
79141;PMS5003;68550;-26.480;29.234;2023-06-14T12:11:48;4;4;
79141;PMS5003;68550;-26.480;29.234;2023-06-14T12:14:14;5;5;
79141;PMS5003;68550;-26.480;29.234;2023-06-14T12:16:40;3;3;
79141;PMS5003;68550;-26.480;29.234;2023-06-14T12:19:08;3;3;
79141;PMS5003;68550;-26.480;29.234;2023-06-14T12:21:30;4;3;
79141;PMS5003;68550;-26.480;29.234;2023-06-14T12:23:58;3;3;
79141;PMS5003;68550;-26.480;29.234;2023-06-14T12:26:22;5;4;
79141;PMS5003;68550;-26.480;29.234;2023-06-14T12:28:47;2;2;
79141;PMS5003;68550;-26.480;29.234;2023-06-14T12:31:13;6;6;
79141;PMS5003;68550;-26.480;29.234;2023-06-14T12:33:39;3;3;
79141;PMS5003;68550;-26.480;29.234;2023-06-14T12:36:04;5;5;
79141;PMS5003;68550;-26.480;29.234;2023-06-14T12:38:30;5;5;
79141;PMS5003;68550;-26.480;29.234;2023-06-14T12:40:55;5;4;
79141;PMS5003;68550;-26.480;29.234;2023-06-14T12:43:20;8;8;
79141;PMS5003;68550;-26.480;29.234;2023-06-14T12:45:46;4;4;
79141;PMS5003;68550;-26.480;29.234;2023-06-14T12:48:13;4;4;
79141;PMS5003;68550;-26.480;29.234;2023-06-14T12:50:37;6;6;
79141;PMS5003;68550;-26.480;29.234;2023-06-14T12:53:02;6;6;
79141;PMS5003;68550;-26.480;29.234;2023-06-14T12:55:28;7;7;
79141;PMS5003;68550;-26.480;29.234;2023-06-14T12:57:53;6;5;
79141;PMS5003;68550;-26.480;29.234;2023-06-14T13:00:19;6;6;
79141;PMS5003;68550;-26.480;29.234;2023-06-14T13:02:44;6;6;
79141;PMS5003;68550;-26.480;29.234;2023-06-14T13:05:10;6;6;
79141;PMS5003;68550;-26.480;29.234;2023-06-14T13:07:36;8;7;
79141;PMS5003;68550;-26.480;29.234;2023-06-14T13:10:01;7;7;
79141;PMS5003;68550;-26.480;29.234;2023-06-14T13:12:27;7;7;
79141;PMS5003;68550;-26.480;29.234;2023-06-14T13:14:52;6;6;
79141;PMS5003;68550;-26.480;29.234;2023-06-14T13:17:18;6;6;
79141;PMS5003;68550;-26.480;29.234;2023-06-14T13:19:43;7;7;
79141;PMS5003;68550;-26.480;29.234;2023-06-14T13:22:09;7;7;
79141;PMS5003;68550;-26.480;29.234;2023-06-14T13:24:34;6;6;
79141;PMS5003;68550;-26.480;29.234;2023-06-14T13:27:02;6;6;
79141;PMS5003;68550;-26.480;29.234;2023-06-14T13:29:25;8;8;
79141;PMS5003;68550;-26.480;29.234;2023-06-14T13:31:51;8;7;
79141;PMS5003;68550;-26.480;29.234;2023-06-14T13:34:16;6;6;
79141;PMS5003;68550;-26.480;29.234;2023-06-14T13:36:42;6;6;
79141;PMS5003;68550;-26.480;29.234;2023-06-14T13:39:08;7;7;
79141;PMS5003;68550;-26.480;29.234;2023-06-14T13:41:33;6;5;
79141;PMS5003;68550;-26.480;29.234;2023-06-14T13:43:59;6;6;
79141;PMS5003;68550;-26.480;29.234;2023-06-14T13:46:24;7;7;
79141;PMS5003;68550;-26.480;29.234;2023-06-14T13:48:49;8;7;
79141;PMS5003;68550;-26.480;29.234;2023-06-14T13:51:19;7;7;
79141;PMS5003;68550;-26.480;29.234;2023-06-14T13:53:40;7;7;
79141;PMS5003;68550;-26.480;29.234;2023-06-14T13:56:06;7;6;
79141;PMS5003;68550;-26.480;29.234;2023-06-14T13:58:31;6;6;
79141;PMS5003;68550;-26.480;29.234;2023-06-14T14:00:57;5;5;
79141;PMS5003;68550;-26.480;29.234;2023-06-14T14:03:23;6;5;
79141;PMS5003;68550;-26.480;29.234;2023-06-14T14:05:48;6;6;
79141;PMS5003;68550;-26.480;29.234;2023-06-14T14:08:14;6;6;
79141;PMS5003;68550;-26.480;29.234;2023-06-14T14:10:39;5;5;
79141;PMS5003;68550;-26.480;29.234;2023-06-14T14:13:05;9;9;
79141;PMS5003;68550;-26.480;29.234;2023-06-14T14:15:31;6;6;
79141;PMS5003;68550;-26.480;29.234;2023-06-14T14:17:56;7;7;
79141;PMS5003;68550;-26.480;29.234;2023-06-14T14:20:21;9;8;
79141;PMS5003;68550;-26.480;29.234;2023-06-14T14:22:47;7;7;
79141;PMS5003;68550;-26.480;29.234;2023-06-14T14:25:12;7;7;
79141;PMS5003;68550;-26.480;29.234;2023-06-14T14:27:38;9;8;
79141;PMS5003;68550;-26.480;29.234;2023-06-14T14:30:03;10;9;
79141;PMS5003;68550;-26.480;29.234;2023-06-14T14:32:29;9;9;
79141;PMS5003;68550;-26.480;29.234;2023-06-14T14:34:54;7;7;
79141;PMS5003;68550;-26.480;29.234;2023-06-14T14:37:20;10;8;
79141;PMS5003;68550;-26.480;29.234;2023-06-14T14:39:46;8;7;
79141;PMS5003;68550;-26.480;29.234;2023-06-14T14:42:11;7;7;
79141;PMS5003;68550;-26.480;29.234;2023-06-14T14:44:37;8;8;
79141;PMS5003;68550;-26.480;29.234;2023-06-14T14:47:05;11;11;
79141;PMS5003;68550;-26.480;29.234;2023-06-14T14:49:27;8;7;
79141;PMS5003;68550;-26.480;29.234;2023-06-14T14:51:52;7;7;
79141;PMS5003;68550;-26.480;29.234;2023-06-14T14:54:18;9;8;
79141;PMS5003;68550;-26.480;29.234;2023-06-14T14:56:44;5;5;
79141;PMS5003;68550;-26.480;29.234;2023-06-14T14:59:11;7;7;
79141;PMS5003;68550;-26.480;29.234;2023-06-14T15:01:35;9;9;
79141;PMS5003;68550;-26.480;29.234;2023-06-14T15:04:00;8;8;
79141;PMS5003;68550;-26.480;29.234;2023-06-14T15:06:26;8;8;
79141;PMS5003;68550;-26.480;29.234;2023-06-14T15:08:52;8;8;
79141;PMS5003;68550;-26.480;29.234;2023-06-14T15:11:17;7;7;
79141;PMS5003;68550;-26.480;29.234;2023-06-14T15:13:43;7;7;
79141;PMS5003;68550;-26.480;29.234;2023-06-14T15:16:08;8;8;
79141;PMS5003;68550;-26.480;29.234;2023-06-14T15:18:34;6;6;
79141;PMS5003;68550;-26.480;29.234;2023-06-14T15:20:59;8;7;
79141;PMS5003;68550;-26.480;29.234;2023-06-14T15:23:25;7;7;
79141;PMS5003;68550;-26.480;29.234;2023-06-14T15:25:50;7;7;
79141;PMS5003;68550;-26.480;29.234;2023-06-14T15:28:18;7;7;
79141;PMS5003;68550;-26.480;29.234;2023-06-14T15:30:41;8;8;
79141;PMS5003;68550;-26.480;29.234;2023-06-14T15:33:07;7;7;
79141;PMS5003;68550;-26.480;29.234;2023-06-14T15:35:34;6;6;
79141;PMS5003;68550;-26.480;29.234;2023-06-14T15:37:58;8;8;
79141;PMS5003;68550;-26.480;29.234;2023-06-14T15:40:23;7;7;
79141;PMS5003;68550;-26.480;29.234;2023-06-14T15:42:49;7;7;
79141;PMS5003;68550;-26.480;29.234;2023-06-14T15:45:14;8;7;
79141;PMS5003;68550;-26.480;29.234;2023-06-14T15:47:40;7;7;
79141;PMS5003;68550;-26.480;29.234;2023-06-14T15:50:06;10;9;
79141;PMS5003;68550;-26.480;29.234;2023-06-14T15:52:31;9;7;
79141;PMS5003;68550;-26.480;29.234;2023-06-14T15:54:56;8;8;
79141;PMS5003;68550;-26.480;29.234;2023-06-14T15:57:22;8;8;
79141;PMS5003;68550;-26.480;29.234;2023-06-14T15:59:47;8;7;
79141;PMS5003;68550;-26.480;29.234;2023-06-14T16:02:18;7;7;
79141;PMS5003;68550;-26.480;29.234;2023-06-14T16:04:39;10;9;
79141;PMS5003;68550;-26.480;29.234;2023-06-14T16:07:04;8;7;
79141;PMS5003;68550;-26.480;29.234;2023-06-14T16:09:30;9;8;
79141;PMS5003;68550;-26.480;29.234;2023-06-14T16:11:55;10;9;
79141;PMS5003;68550;-26.480;29.234;2023-06-14T16:14:21;9;9;
79141;PMS5003;68550;-26.480;29.234;2023-06-14T16:16:46;10;10;
79141;PMS5003;68550;-26.480;29.234;2023-06-14T16:19:12;8;8;